sensor_id;sensor_type;location;lat;lon;timestamp;P1;durP1;ratioP1;P2;durP2;ratioP2
23586;SDS011;11971;51.148;4.104;2023-02-28T00:01:39;60.33;;;32.10;;
23586;SDS011;11971;51.148;4.104;2023-02-28T00:04:06;58.00;;;32.65;;
23586;SDS011;11971;51.148;4.104;2023-02-28T00:06:34;63.37;;;32.83;;
23586;SDS011;11971;51.148;4.104;2023-02-28T00:09:01;56.63;;;32.13;;
23586;SDS011;11971;51.148;4.104;2023-02-28T00:11:27;58.78;;;32.50;;
23586;SDS011;11971;51.148;4.104;2023-02-28T00:13:55;59.30;;;32.38;;
23586;SDS011;11971;51.148;4.104;2023-02-28T00:16:22;61.25;;;31.83;;
23586;SDS011;11971;51.148;4.104;2023-02-28T00:18:49;59.72;;;33.15;;
23586;SDS011;11971;51.148;4.104;2023-02-28T00:21:16;56.78;;;32.25;;
23586;SDS011;11971;51.148;4.104;2023-02-28T00:23:44;60.33;;;32.38;;
23586;SDS011;11971;51.148;4.104;2023-02-28T00:26:11;59.03;;;32.47;;
23586;SDS011;11971;51.148;4.104;2023-02-28T00:28:38;58.22;;;32.20;;
23586;SDS011;11971;51.148;4.104;2023-02-28T00:31:06;60.33;;;32.95;;
23586;SDS011;11971;51.148;4.104;2023-02-28T00:33:35;60.25;;;32.67;;
23586;SDS011;11971;51.148;4.104;2023-02-28T00:36:02;56.50;;;32.20;;
23586;SDS011;11971;51.148;4.104;2023-02-28T00:38:30;59.28;;;32.28;;
23586;SDS011;11971;51.148;4.104;2023-02-28T00:40:57;57.45;;;31.58;;
23586;SDS011;11971;51.148;4.104;2023-02-28T00:43:29;58.75;;;32.00;;
23586;SDS011;11971;51.148;4.104;2023-02-28T00:45:56;55.45;;;31.90;;
23586;SDS011;11971;51.148;4.104;2023-02-28T00:48:24;54.83;;;31.38;;
23586;SDS011;11971;51.148;4.104;2023-02-28T00:50:51;56.97;;;31.70;;
23586;SDS011;11971;51.148;4.104;2023-02-28T00:53:17;57.85;;;32.22;;
23586;SDS011;11971;51.148;4.104;2023-02-28T00:55:48;59.70;;;32.50;;
23586;SDS011;11971;51.148;4.104;2023-02-28T00:58:15;60.83;;;33.05;;
23586;SDS011;11971;51.148;4.104;2023-02-28T01:00:41;59.35;;;33.05;;
23586;SDS011;11971;51.148;4.104;2023-02-28T01:03:08;59.85;;;33.20;;
23586;SDS011;11971;51.148;4.104;2023-02-28T01:05:36;58.10;;;32.95;;
23586;SDS011;11971;51.148;4.104;2023-02-28T01:08:02;59.53;;;33.15;;
23586;SDS011;11971;51.148;4.104;2023-02-28T01:10:29;60.90;;;33.00;;
23586;SDS011;11971;51.148;4.104;2023-02-28T01:12:56;62.80;;;33.10;;
23586;SDS011;11971;51.148;4.104;2023-02-28T01:15:23;69.05;;;33.92;;
23586;SDS011;11971;51.148;4.104;2023-02-28T01:17:49;60.08;;;32.67;;
23586;SDS011;11971;51.148;4.104;2023-02-28T01:20:16;61.25;;;33.17;;
23586;SDS011;11971;51.148;4.104;2023-02-28T01:22:44;59.67;;;32.72;;
23586;SDS011;11971;51.148;4.104;2023-02-28T01:25:11;64.10;;;33.03;;
23586;SDS011;11971;51.148;4.104;2023-02-28T01:27:38;59.65;;;32.45;;
23586;SDS011;11971;51.148;4.104;2023-02-28T01:30:06;58.50;;;32.63;;
23586;SDS011;11971;51.148;4.104;2023-02-28T01:32:33;58.28;;;32.75;;
23586;SDS011;11971;51.148;4.104;2023-02-28T01:35:00;61.13;;;33.35;;
23586;SDS011;11971;51.148;4.104;2023-02-28T01:37:27;59.50;;;33.22;;
23586;SDS011;11971;51.148;4.104;2023-02-28T01:39:55;59.35;;;32.97;;
23586;SDS011;11971;51.148;4.104;2023-02-28T01:42:22;61.17;;;33.17;;
23586;SDS011;11971;51.148;4.104;2023-02-28T01:44:57;60.08;;;33.13;;
23586;SDS011;11971;51.148;4.104;2023-02-28T01:47:28;59.00;;;32.10;;
23586;SDS011;11971;51.148;4.104;2023-02-28T01:49:56;61.33;;;33.08;;
23586;SDS011;11971;51.148;4.104;2023-02-28T01:52:23;61.00;;;32.65;;
23586;SDS011;11971;51.148;4.104;2023-02-28T01:54:51;58.88;;;32.53;;
23586;SDS011;11971;51.148;4.104;2023-02-28T01:57:20;58.20;;;32.10;;
23586;SDS011;11971;51.148;4.104;2023-02-28T01:59:54;56.38;;;32.58;;
23586;SDS011;11971;51.148;4.104;2023-02-28T02:02:23;61.63;;;32.85;;
23586;SDS011;11971;51.148;4.104;2023-02-28T02:04:51;57.65;;;32.95;;
23586;SDS011;11971;51.148;4.104;2023-02-28T02:07:20;59.92;;;33.22;;
23586;SDS011;11971;51.148;4.104;2023-02-28T02:09:49;57.38;;;32.53;;
23586;SDS011;11971;51.148;4.104;2023-02-28T02:12:18;55.92;;;31.20;;
23586;SDS011;11971;51.148;4.104;2023-02-28T02:14:56;59.87;;;31.87;;
23586;SDS011;11971;51.148;4.104;2023-02-28T02:17:28;60.67;;;33.42;;
23586;SDS011;11971;51.148;4.104;2023-02-28T02:23:07;58.88;;;32.40;;
23586;SDS011;11971;51.148;4.104;2023-02-28T02:25:48;58.53;;;32.35;;
23586;SDS011;11971;51.148;4.104;2023-02-28T02:28:33;61.85;;;32.90;;
23586;SDS011;11971;51.148;4.104;2023-02-28T02:31:20;63.65;;;32.85;;
23586;SDS011;11971;51.148;4.104;2023-02-28T02:37:12;60.90;;;33.03;;
23586;SDS011;11971;51.148;4.104;2023-02-28T02:39:45;56.88;;;32.13;;
23586;SDS011;11971;51.148;4.104;2023-02-28T02:42:16;59.10;;;32.28;;
23586;SDS011;11971;51.148;4.104;2023-02-28T02:44:49;55.92;;;31.95;;
23586;SDS011;11971;51.148;4.104;2023-02-28T02:47:19;60.55;;;32.33;;
23586;SDS011;11971;51.148;4.104;2023-02-28T02:49:48;59.17;;;33.05;;
23586;SDS011;11971;51.148;4.104;2023-02-28T02:52:20;61.90;;;32.50;;
23586;SDS011;11971;51.148;4.104;2023-02-28T02:54:48;65.35;;;31.40;;
23586;SDS011;11971;51.148;4.104;2023-02-28T02:57:19;61.20;;;32.15;;
23586;SDS011;11971;51.148;4.104;2023-02-28T02:59:49;55.58;;;31.92;;
23586;SDS011;11971;51.148;4.104;2023-02-28T03:02:19;75.65;;;32.17;;
23586;SDS011;11971;51.148;4.104;2023-02-28T03:04:48;57.03;;;30.80;;
23586;SDS011;11971;51.148;4.104;2023-02-28T03:07:19;54.55;;;31.55;;
23586;SDS011;11971;51.148;4.104;2023-02-28T03:09:50;57.03;;;30.75;;
23586;SDS011;11971;51.148;4.104;2023-02-28T03:12:18;54.70;;;31.25;;
23586;SDS011;11971;51.148;4.104;2023-02-28T03:14:48;51.55;;;30.27;;
23586;SDS011;11971;51.148;4.104;2023-02-28T03:17:34;62.10;;;32.20;;
23586;SDS011;11971;51.148;4.104;2023-02-28T03:20:14;56.33;;;32.00;;
23586;SDS011;11971;51.148;4.104;2023-02-28T03:22:56;55.42;;;31.35;;
23586;SDS011;11971;51.148;4.104;2023-02-28T03:25:29;55.67;;;31.60;;
23586;SDS011;11971;51.148;4.104;2023-02-28T03:28:00;57.80;;;32.60;;
23586;SDS011;11971;51.148;4.104;2023-02-28T03:30:33;56.63;;;31.85;;
23586;SDS011;11971;51.148;4.104;2023-02-28T03:33:03;57.85;;;32.30;;
23586;SDS011;11971;51.148;4.104;2023-02-28T03:35:34;60.95;;;32.92;;
23586;SDS011;11971;51.148;4.104;2023-02-28T03:38:06;61.58;;;33.08;;
23586;SDS011;11971;51.148;4.104;2023-02-28T03:40:39;60.10;;;33.45;;
23586;SDS011;11971;51.148;4.104;2023-02-28T03:43:09;60.80;;;33.22;;
23586;SDS011;11971;51.148;4.104;2023-02-28T03:45:38;60.33;;;33.42;;
23586;SDS011;11971;51.148;4.104;2023-02-28T03:50:35;59.97;;;32.60;;
23586;SDS011;11971;51.148;4.104;2023-02-28T03:53:06;60.58;;;33.08;;
23586;SDS011;11971;51.148;4.104;2023-02-28T03:55:37;58.03;;;32.25;;
23586;SDS011;11971;51.148;4.104;2023-02-28T03:58:09;61.75;;;33.15;;
23586;SDS011;11971;51.148;4.104;2023-02-28T04:00:39;59.58;;;32.58;;
23586;SDS011;11971;51.148;4.104;2023-02-28T04:03:07;60.88;;;32.72;;
23586;SDS011;11971;51.148;4.104;2023-02-28T04:05:33;59.22;;;32.90;;
23586;SDS011;11971;51.148;4.104;2023-02-28T04:10:40;59.43;;;31.53;;
23586;SDS011;11971;51.148;4.104;2023-02-28T04:13:08;58.40;;;32.58;;
23586;SDS011;11971;51.148;4.104;2023-02-28T04:15:35;57.97;;;32.28;;
23586;SDS011;11971;51.148;4.104;2023-02-28T04:18:01;59.60;;;32.55;;
23586;SDS011;11971;51.148;4.104;2023-02-28T04:20:28;60.30;;;33.10;;
23586;SDS011;11971;51.148;4.104;2023-02-28T04:22:55;59.17;;;33.03;;
23586;SDS011;11971;51.148;4.104;2023-02-28T04:25:23;59.20;;;33.03;;
23586;SDS011;11971;51.148;4.104;2023-02-28T04:27:49;58.22;;;31.85;;
23586;SDS011;11971;51.148;4.104;2023-02-28T04:30:16;60.90;;;32.10;;
23586;SDS011;11971;51.148;4.104;2023-02-28T04:32:43;61.72;;;32.63;;
23586;SDS011;11971;51.148;4.104;2023-02-28T04:35:09;64.80;;;32.97;;
23586;SDS011;11971;51.148;4.104;2023-02-28T04:37:36;58.47;;;32.08;;
23586;SDS011;11971;51.148;4.104;2023-02-28T04:40:03;59.47;;;33.13;;
23586;SDS011;11971;51.148;4.104;2023-02-28T04:42:32;62.05;;;33.20;;
23586;SDS011;11971;51.148;4.104;2023-02-28T04:45:00;65.15;;;33.55;;
23586;SDS011;11971;51.148;4.104;2023-02-28T04:47:27;61.58;;;33.90;;
23586;SDS011;11971;51.148;4.104;2023-02-28T04:49:54;62.03;;;33.53;;
23586;SDS011;11971;51.148;4.104;2023-02-28T04:52:21;62.33;;;33.50;;
23586;SDS011;11971;51.148;4.104;2023-02-28T04:54:47;63.72;;;33.60;;
23586;SDS011;11971;51.148;4.104;2023-02-28T04:57:14;64.88;;;33.28;;
23586;SDS011;11971;51.148;4.104;2023-02-28T04:59:42;63.33;;;33.50;;
23586;SDS011;11971;51.148;4.104;2023-02-28T05:02:09;59.95;;;32.88;;
23586;SDS011;11971;51.148;4.104;2023-02-28T05:04:35;69.00;;;33.10;;
23586;SDS011;11971;51.148;4.104;2023-02-28T05:07:03;62.70;;;33.13;;
23586;SDS011;11971;51.148;4.104;2023-02-28T05:09:29;62.22;;;33.13;;
23586;SDS011;11971;51.148;4.104;2023-02-28T05:11:57;67.35;;;32.90;;
23586;SDS011;11971;51.148;4.104;2023-02-28T05:14:24;61.35;;;33.33;;
23586;SDS011;11971;51.148;4.104;2023-02-28T05:16:52;63.97;;;33.63;;
23586;SDS011;11971;51.148;4.104;2023-02-28T05:19:19;61.55;;;33.15;;
23586;SDS011;11971;51.148;4.104;2023-02-28T05:21:49;59.58;;;32.25;;
23586;SDS011;11971;51.148;4.104;2023-02-28T05:24:17;65.78;;;33.92;;
23586;SDS011;11971;51.148;4.104;2023-02-28T05:26:48;65.97;;;33.10;;
23586;SDS011;11971;51.148;4.104;2023-02-28T05:29:16;61.58;;;33.50;;
23586;SDS011;11971;51.148;4.104;2023-02-28T05:31:42;61.20;;;32.90;;
23586;SDS011;11971;51.148;4.104;2023-02-28T05:34:11;62.40;;;33.42;;
23586;SDS011;11971;51.148;4.104;2023-02-28T05:36:40;61.53;;;33.05;;
23586;SDS011;11971;51.148;4.104;2023-02-28T05:39:07;61.63;;;33.00;;
23586;SDS011;11971;51.148;4.104;2023-02-28T05:41:37;61.60;;;33.60;;
23586;SDS011;11971;51.148;4.104;2023-02-28T05:44:07;59.40;;;32.40;;
23586;SDS011;11971;51.148;4.104;2023-02-28T05:46:33;57.92;;;31.95;;
23586;SDS011;11971;51.148;4.104;2023-02-28T05:49:00;59.30;;;32.10;;
23586;SDS011;11971;51.148;4.104;2023-02-28T05:51:29;59.80;;;32.13;;
23586;SDS011;11971;51.148;4.104;2023-02-28T05:53:58;61.15;;;32.30;;
23586;SDS011;11971;51.148;4.104;2023-02-28T05:56:25;60.85;;;32.80;;
23586;SDS011;11971;51.148;4.104;2023-02-28T05:58:52;60.42;;;32.65;;
23586;SDS011;11971;51.148;4.104;2023-02-28T06:01:19;62.42;;;33.10;;
23586;SDS011;11971;51.148;4.104;2023-02-28T06:03:48;61.08;;;33.03;;
23586;SDS011;11971;51.148;4.104;2023-02-28T06:06:15;60.80;;;32.38;;
23586;SDS011;11971;51.148;4.104;2023-02-28T06:08:43;63.47;;;32.80;;
23586;SDS011;11971;51.148;4.104;2023-02-28T06:11:10;56.95;;;31.55;;
23586;SDS011;11971;51.148;4.104;2023-02-28T06:13:37;57.17;;;31.58;;
23586;SDS011;11971;51.148;4.104;2023-02-28T06:16:04;55.95;;;31.05;;
23586;SDS011;11971;51.148;4.104;2023-02-28T06:18:31;60.60;;;32.83;;
23586;SDS011;11971;51.148;4.104;2023-02-28T06:20:57;62.72;;;32.97;;
23586;SDS011;11971;51.148;4.104;2023-02-28T06:23:24;60.05;;;32.20;;
23586;SDS011;11971;51.148;4.104;2023-02-28T06:25:52;61.25;;;32.85;;
23586;SDS011;11971;51.148;4.104;2023-02-28T06:28:22;62.08;;;32.40;;
23586;SDS011;11971;51.148;4.104;2023-02-28T06:30:49;60.50;;;32.47;;
23586;SDS011;11971;51.148;4.104;2023-02-28T06:33:15;63.78;;;33.65;;
23586;SDS011;11971;51.148;4.104;2023-02-28T06:35:43;61.40;;;33.00;;
23586;SDS011;11971;51.148;4.104;2023-02-28T06:38:10;61.03;;;32.63;;
23586;SDS011;11971;51.148;4.104;2023-02-28T06:40:36;61.40;;;33.05;;
23586;SDS011;11971;51.148;4.104;2023-02-28T06:43:04;63.35;;;33.50;;
23586;SDS011;11971;51.148;4.104;2023-02-28T06:45:32;67.55;;;34.33;;
23586;SDS011;11971;51.148;4.104;2023-02-28T06:47:58;62.42;;;32.53;;
23586;SDS011;11971;51.148;4.104;2023-02-28T06:50:25;60.17;;;33.03;;
23586;SDS011;11971;51.148;4.104;2023-02-28T06:52:54;59.15;;;32.05;;
23586;SDS011;11971;51.148;4.104;2023-02-28T06:55:21;64.93;;;33.47;;
23586;SDS011;11971;51.148;4.104;2023-02-28T06:57:47;60.67;;;32.38;;
23586;SDS011;11971;51.148;4.104;2023-02-28T07:00:17;61.92;;;32.67;;
23586;SDS011;11971;51.148;4.104;2023-02-28T07:02:44;61.25;;;32.83;;
23586;SDS011;11971;51.148;4.104;2023-02-28T07:05:11;59.17;;;32.40;;
23586;SDS011;11971;51.148;4.104;2023-02-28T07:07:37;63.90;;;33.47;;
23586;SDS011;11971;51.148;4.104;2023-02-28T07:10:08;63.13;;;33.15;;
23586;SDS011;11971;51.148;4.104;2023-02-28T07:12:36;62.80;;;33.28;;
23586;SDS011;11971;51.148;4.104;2023-02-28T07:15:03;64.43;;;33.10;;
23586;SDS011;11971;51.148;4.104;2023-02-28T07:17:32;64.65;;;33.47;;
23586;SDS011;11971;51.148;4.104;2023-02-28T07:19:59;62.38;;;33.15;;
23586;SDS011;11971;51.148;4.104;2023-02-28T07:22:26;65.60;;;33.25;;
23586;SDS011;11971;51.148;4.104;2023-02-28T07:24:53;66.05;;;33.42;;
23586;SDS011;11971;51.148;4.104;2023-02-28T07:27:20;63.97;;;33.55;;
23586;SDS011;11971;51.148;4.104;2023-02-28T07:29:50;62.42;;;32.95;;
23586;SDS011;11971;51.148;4.104;2023-02-28T07:32:17;63.15;;;32.95;;
23586;SDS011;11971;51.148;4.104;2023-02-28T07:34:46;64.63;;;33.25;;
23586;SDS011;11971;51.148;4.104;2023-02-28T07:39:41;63.40;;;32.88;;
23586;SDS011;11971;51.148;4.104;2023-02-28T07:42:08;66.93;;;33.78;;
23586;SDS011;11971;51.148;4.104;2023-02-28T07:44:37;64.85;;;32.97;;
23586;SDS011;11971;51.148;4.104;2023-02-28T07:47:05;65.95;;;33.70;;
23586;SDS011;11971;51.148;4.104;2023-02-28T07:49:33;71.68;;;34.88;;
23586;SDS011;11971;51.148;4.104;2023-02-28T07:52:01;71.50;;;34.28;;
23586;SDS011;11971;51.148;4.104;2023-02-28T07:54:28;66.68;;;33.65;;
23586;SDS011;11971;51.148;4.104;2023-02-28T07:56:55;66.40;;;32.83;;
23586;SDS011;11971;51.148;4.104;2023-02-28T07:59:22;69.22;;;33.72;;
23586;SDS011;11971;51.148;4.104;2023-02-28T08:01:48;65.75;;;33.03;;
23586;SDS011;11971;51.148;4.104;2023-02-28T08:04:15;68.57;;;33.40;;
23586;SDS011;11971;51.148;4.104;2023-02-28T08:06:42;65.68;;;33.80;;
23586;SDS011;11971;51.148;4.104;2023-02-28T08:09:10;66.22;;;33.83;;
23586;SDS011;11971;51.148;4.104;2023-02-28T08:11:37;65.03;;;33.15;;
23586;SDS011;11971;51.148;4.104;2023-02-28T08:14:03;69.55;;;33.08;;
23586;SDS011;11971;51.148;4.104;2023-02-28T08:16:30;71.05;;;33.55;;
23586;SDS011;11971;51.148;4.104;2023-02-28T08:18:57;69.28;;;33.75;;
23586;SDS011;11971;51.148;4.104;2023-02-28T08:21:24;69.60;;;33.42;;
23586;SDS011;11971;51.148;4.104;2023-02-28T08:23:50;65.22;;;33.17;;
23586;SDS011;11971;51.148;4.104;2023-02-28T08:26:19;65.28;;;33.63;;
23586;SDS011;11971;51.148;4.104;2023-02-28T08:28:46;66.65;;;33.38;;
23586;SDS011;11971;51.148;4.104;2023-02-28T08:31:13;68.32;;;32.83;;
23586;SDS011;11971;51.148;4.104;2023-02-28T08:33:41;68.35;;;33.05;;
23586;SDS011;11971;51.148;4.104;2023-02-28T08:36:09;68.60;;;33.50;;
23586;SDS011;11971;51.148;4.104;2023-02-28T08:38:36;66.38;;;33.03;;
23586;SDS011;11971;51.148;4.104;2023-02-28T08:41:05;67.55;;;32.60;;
23586;SDS011;11971;51.148;4.104;2023-02-28T08:46:00;62.20;;;31.90;;
23586;SDS011;11971;51.148;4.104;2023-02-28T08:48:27;63.58;;;32.70;;
23586;SDS011;11971;51.148;4.104;2023-02-28T08:50:55;64.43;;;33.35;;
23586;SDS011;11971;51.148;4.104;2023-02-28T08:53:22;63.85;;;32.63;;
23586;SDS011;11971;51.148;4.104;2023-02-28T08:55:55;64.28;;;32.17;;
23586;SDS011;11971;51.148;4.104;2023-02-28T08:58:22;62.47;;;32.35;;
23586;SDS011;11971;51.148;4.104;2023-02-28T09:00:50;65.43;;;33.58;;
23586;SDS011;11971;51.148;4.104;2023-02-28T09:03:17;66.27;;;34.07;;
23586;SDS011;11971;51.148;4.104;2023-02-28T09:05:51;65.10;;;31.98;;
23586;SDS011;11971;51.148;4.104;2023-02-28T09:08:18;61.78;;;31.83;;
23586;SDS011;11971;51.148;4.104;2023-02-28T09:10:44;63.58;;;33.10;;
23586;SDS011;11971;51.148;4.104;2023-02-28T09:13:11;68.20;;;34.60;;
23586;SDS011;11971;51.148;4.104;2023-02-28T09:15:38;62.35;;;32.22;;
23586;SDS011;11971;51.148;4.104;2023-02-28T09:18:06;65.25;;;33.60;;
23586;SDS011;11971;51.148;4.104;2023-02-28T09:20:33;67.37;;;34.03;;
23586;SDS011;11971;51.148;4.104;2023-02-28T09:23:00;63.15;;;31.85;;
23586;SDS011;11971;51.148;4.104;2023-02-28T09:25:26;66.57;;;32.67;;
23586;SDS011;11971;51.148;4.104;2023-02-28T09:27:53;67.78;;;32.08;;
23586;SDS011;11971;51.148;4.104;2023-02-28T09:30:20;71.30;;;31.85;;
23586;SDS011;11971;51.148;4.104;2023-02-28T09:32:46;61.80;;;30.75;;
23586;SDS011;11971;51.148;4.104;2023-02-28T09:35:18;61.63;;;31.33;;
23586;SDS011;11971;51.148;4.104;2023-02-28T09:40:12;61.50;;;31.17;;
23586;SDS011;11971;51.148;4.104;2023-02-28T09:42:42;62.33;;;31.15;;
23586;SDS011;11971;51.148;4.104;2023-02-28T09:45:11;60.13;;;30.60;;
23586;SDS011;11971;51.148;4.104;2023-02-28T09:47:45;64.03;;;32.95;;
23586;SDS011;11971;51.148;4.104;2023-02-28T09:50:17;66.32;;;31.65;;
23586;SDS011;11971;51.148;4.104;2023-02-28T09:52:58;64.72;;;31.75;;
23586;SDS011;11971;51.148;4.104;2023-02-28T09:55:26;61.97;;;31.67;;
23586;SDS011;11971;51.148;4.104;2023-02-28T09:57:55;64.00;;;31.45;;
23586;SDS011;11971;51.148;4.104;2023-02-28T10:00:26;60.88;;;31.08;;
23586;SDS011;11971;51.148;4.104;2023-02-28T10:05:53;60.50;;;30.67;;
23586;SDS011;11971;51.148;4.104;2023-02-28T10:08:24;63.35;;;31.33;;
23586;SDS011;11971;51.148;4.104;2023-02-28T10:10:53;63.25;;;31.73;;
23586;SDS011;11971;51.148;4.104;2023-02-28T10:13:23;62.42;;;31.45;;
23586;SDS011;11971;51.148;4.104;2023-02-28T10:15:52;61.60;;;31.15;;
23586;SDS011;11971;51.148;4.104;2023-02-28T10:18:23;63.58;;;30.98;;
23586;SDS011;11971;51.148;4.104;2023-02-28T10:20:52;63.72;;;32.03;;
23586;SDS011;11971;51.148;4.104;2023-02-28T10:23:21;63.28;;;31.60;;
23586;SDS011;11971;51.148;4.104;2023-02-28T10:25:52;63.15;;;31.73;;
23586;SDS011;11971;51.148;4.104;2023-02-28T10:28:21;62.60;;;31.48;;
23586;SDS011;11971;51.148;4.104;2023-02-28T10:30:48;63.67;;;31.83;;
23586;SDS011;11971;51.148;4.104;2023-02-28T10:33:19;64.50;;;31.83;;
23586;SDS011;11971;51.148;4.104;2023-02-28T10:35:48;66.03;;;32.72;;
23586;SDS011;11971;51.148;4.104;2023-02-28T10:38:19;63.95;;;31.67;;
23586;SDS011;11971;51.148;4.104;2023-02-28T10:40:47;63.35;;;31.98;;
23586;SDS011;11971;51.148;4.104;2023-02-28T10:43:21;66.63;;;32.30;;
23586;SDS011;11971;51.148;4.104;2023-02-28T10:45:53;64.22;;;32.08;;
23586;SDS011;11971;51.148;4.104;2023-02-28T10:48:33;66.45;;;32.33;;
23586;SDS011;11971;51.148;4.104;2023-02-28T10:51:02;65.57;;;32.67;;
23586;SDS011;11971;51.148;4.104;2023-02-28T10:53:33;63.90;;;31.97;;
23586;SDS011;11971;51.148;4.104;2023-02-28T10:56:03;65.70;;;32.33;;
23586;SDS011;11971;51.148;4.104;2023-02-28T10:58:33;65.07;;;31.58;;
23586;SDS011;11971;51.148;4.104;2023-02-28T11:01:12;65.72;;;32.15;;
23586;SDS011;11971;51.148;4.104;2023-02-28T11:03:40;65.40;;;32.28;;
23586;SDS011;11971;51.148;4.104;2023-02-28T11:06:07;67.57;;;32.50;;
23586;SDS011;11971;51.148;4.104;2023-02-28T11:08:44;63.78;;;31.55;;
23586;SDS011;11971;51.148;4.104;2023-02-28T11:11:12;65.00;;;32.00;;
23586;SDS011;11971;51.148;4.104;2023-02-28T11:13:39;65.70;;;32.15;;
23586;SDS011;11971;51.148;4.104;2023-02-28T11:16:07;65.15;;;32.17;;
23586;SDS011;11971;51.148;4.104;2023-02-28T11:21:03;64.82;;;31.65;;
23586;SDS011;11971;51.148;4.104;2023-02-28T11:23:30;64.07;;;31.60;;
23586;SDS011;11971;51.148;4.104;2023-02-28T11:26:02;67.40;;;32.40;;
23586;SDS011;11971;51.148;4.104;2023-02-28T11:28:30;63.85;;;31.67;;
23586;SDS011;11971;51.148;4.104;2023-02-28T11:31:05;64.18;;;31.55;;
23586;SDS011;11971;51.148;4.104;2023-02-28T11:33:41;62.35;;;30.92;;
23586;SDS011;11971;51.148;4.104;2023-02-28T11:36:11;64.28;;;31.60;;
23586;SDS011;11971;51.148;4.104;2023-02-28T11:41:10;62.67;;;31.33;;
23586;SDS011;11971;51.148;4.104;2023-02-28T11:43:48;62.33;;;31.17;;
23586;SDS011;11971;51.148;4.104;2023-02-28T11:46:24;63.22;;;31.17;;
23586;SDS011;11971;51.148;4.104;2023-02-28T11:48:54;62.38;;;31.02;;
23586;SDS011;11971;51.148;4.104;2023-02-28T11:51:27;62.22;;;31.08;;
23586;SDS011;11971;51.148;4.104;2023-02-28T11:53:59;63.97;;;31.58;;
23586;SDS011;11971;51.148;4.104;2023-02-28T11:56:40;64.25;;;31.83;;
23586;SDS011;11971;51.148;4.104;2023-02-28T11:59:14;64.03;;;31.85;;
23586;SDS011;11971;51.148;4.104;2023-02-28T12:02:05;63.53;;;31.33;;
23586;SDS011;11971;51.148;4.104;2023-02-28T12:04:46;63.90;;;31.55;;
23586;SDS011;11971;51.148;4.104;2023-02-28T12:07:23;65.55;;;31.98;;
23586;SDS011;11971;51.148;4.104;2023-02-28T12:09:57;63.83;;;31.65;;
23586;SDS011;11971;51.148;4.104;2023-02-28T12:12:32;63.85;;;31.38;;
23586;SDS011;11971;51.148;4.104;2023-02-28T12:15:23;64.37;;;31.50;;
23586;SDS011;11971;51.148;4.104;2023-02-28T12:18:06;64.47;;;31.65;;
23586;SDS011;11971;51.148;4.104;2023-02-28T12:20:41;63.90;;;31.40;;
23586;SDS011;11971;51.148;4.104;2023-02-28T12:23:21;62.90;;;31.33;;
23586;SDS011;11971;51.148;4.104;2023-02-28T12:25:59;63.67;;;31.63;;
23586;SDS011;11971;51.148;4.104;2023-02-28T12:28:31;63.38;;;31.38;;
23586;SDS011;11971;51.148;4.104;2023-02-28T12:31:01;62.97;;;31.65;;
23586;SDS011;11971;51.148;4.104;2023-02-28T12:33:32;63.15;;;31.35;;
23586;SDS011;11971;51.148;4.104;2023-02-28T12:36:03;64.05;;;31.98;;
23586;SDS011;11971;51.148;4.104;2023-02-28T12:38:36;65.88;;;31.90;;
23586;SDS011;11971;51.148;4.104;2023-02-28T12:41:09;63.85;;;31.55;;
23586;SDS011;11971;51.148;4.104;2023-02-28T12:43:43;63.78;;;31.60;;
23586;SDS011;11971;51.148;4.104;2023-02-28T12:46:12;64.32;;;31.50;;
23586;SDS011;11971;51.148;4.104;2023-02-28T12:48:43;63.95;;;31.52;;
23586;SDS011;11971;51.148;4.104;2023-02-28T12:51:12;65.40;;;32.13;;
23586;SDS011;11971;51.148;4.104;2023-02-28T12:53:43;68.32;;;32.33;;
23586;SDS011;11971;51.148;4.104;2023-02-28T12:56:16;63.55;;;31.67;;
23586;SDS011;11971;51.148;4.104;2023-02-28T13:04:23;63.05;;;30.95;;
23586;SDS011;11971;51.148;4.104;2023-02-28T13:07:14;63.90;;;32.00;;
23586;SDS011;11971;51.148;4.104;2023-02-28T13:09:51;63.22;;;31.40;;
23586;SDS011;11971;51.148;4.104;2023-02-28T13:12:18;64.82;;;31.80;;
23586;SDS011;11971;51.148;4.104;2023-02-28T13:14:49;63.70;;;31.73;;
23586;SDS011;11971;51.148;4.104;2023-02-28T13:17:17;65.38;;;31.35;;
23586;SDS011;11971;51.148;4.104;2023-02-28T13:22:17;63.05;;;31.42;;
23586;SDS011;11971;51.148;4.104;2023-02-28T13:24:46;67.97;;;31.40;;
23586;SDS011;11971;51.148;4.104;2023-02-28T13:27:21;70.25;;;31.88;;
23586;SDS011;11971;51.148;4.104;2023-02-28T13:29:51;62.80;;;31.20;;
23586;SDS011;11971;51.148;4.104;2023-02-28T13:32:19;64.43;;;32.13;;
23586;SDS011;11971;51.148;4.104;2023-02-28T13:44:07;65.10;;;32.08;;
23586;SDS011;11971;51.148;4.104;2023-02-28T13:50:03;65.32;;;32.20;;
23586;SDS011;11971;51.148;4.104;2023-02-28T13:52:42;64.43;;;31.90;;
23586;SDS011;11971;51.148;4.104;2023-02-28T13:55:20;63.58;;;31.27;;
23586;SDS011;11971;51.148;4.104;2023-02-28T13:58:08;64.50;;;32.25;;
23586;SDS011;11971;51.148;4.104;2023-02-28T14:00:43;64.30;;;31.70;;
23586;SDS011;11971;51.148;4.104;2023-02-28T14:06:09;65.93;;;32.45;;
23586;SDS011;11971;51.148;4.104;2023-02-28T14:08:45;65.85;;;31.88;;
23586;SDS011;11971;51.148;4.104;2023-02-28T14:11:23;67.85;;;33.30;;
23586;SDS011;11971;51.148;4.104;2023-02-28T14:13:52;66.57;;;32.85;;
23586;SDS011;11971;51.148;4.104;2023-02-28T14:16:20;69.38;;;33.90;;
23586;SDS011;11971;51.148;4.104;2023-02-28T14:21:19;66.95;;;32.83;;
23586;SDS011;11971;51.148;4.104;2023-02-28T14:23:56;65.03;;;32.00;;
23586;SDS011;11971;51.148;4.104;2023-02-28T14:26:59;67.22;;;33.45;;
23586;SDS011;11971;51.148;4.104;2023-02-28T14:29:41;67.05;;;33.50;;
23586;SDS011;11971;51.148;4.104;2023-02-28T14:32:27;68.78;;;34.22;;
23586;SDS011;11971;51.148;4.104;2023-02-28T14:34:58;65.18;;;32.50;;
23586;SDS011;11971;51.148;4.104;2023-02-28T14:37:30;64.60;;;31.65;;
23586;SDS011;11971;51.148;4.104;2023-02-28T14:39:59;68.35;;;33.70;;
23586;SDS011;11971;51.148;4.104;2023-02-28T14:42:27;68.50;;;34.45;;
23586;SDS011;11971;51.148;4.104;2023-02-28T14:44:55;67.18;;;33.35;;
23586;SDS011;11971;51.148;4.104;2023-02-28T14:47:22;62.95;;;31.23;;
23586;SDS011;11971;51.148;4.104;2023-02-28T14:49:49;68.65;;;34.15;;
23586;SDS011;11971;51.148;4.104;2023-02-28T14:52:19;66.40;;;33.42;;
23586;SDS011;11971;51.148;4.104;2023-02-28T14:54:50;65.72;;;32.45;;
23586;SDS011;11971;51.148;4.104;2023-02-28T14:57:22;66.80;;;32.38;;
23586;SDS011;11971;51.148;4.104;2023-02-28T14:59:57;67.82;;;33.90;;
23586;SDS011;11971;51.148;4.104;2023-02-28T15:02:26;70.72;;;34.53;;
23586;SDS011;11971;51.148;4.104;2023-02-28T15:04:53;67.03;;;32.05;;
23586;SDS011;11971;51.148;4.104;2023-02-28T15:10:14;64.97;;;32.55;;
23586;SDS011;11971;51.148;4.104;2023-02-28T15:12:45;66.10;;;32.28;;
23586;SDS011;11971;51.148;4.104;2023-02-28T15:15:15;66.55;;;32.78;;
23586;SDS011;11971;51.148;4.104;2023-02-28T15:17:44;69.88;;;33.17;;
23586;SDS011;11971;51.148;4.104;2023-02-28T15:20:12;66.30;;;32.80;;
23586;SDS011;11971;51.148;4.104;2023-02-28T15:22:41;66.90;;;33.00;;
23586;SDS011;11971;51.148;4.104;2023-02-28T15:25:09;66.68;;;32.75;;
23586;SDS011;11971;51.148;4.104;2023-02-28T15:27:41;65.10;;;32.22;;
23586;SDS011;11971;51.148;4.104;2023-02-28T15:30:14;68.50;;;33.45;;
23586;SDS011;11971;51.148;4.104;2023-02-28T15:32:42;66.20;;;32.63;;